ADDS METAR Data INFO
IDs: Format: Raw Decoded Include TAF

Data at: 2111 UTC 22 Oct 2017

KGYL 222054Z AUTO 25005KT 10SM CLR 18/M01 A2994 RMK AO2 T01801008
KGYL 222033Z AUTO 25007G16KT 10SM CLR 18/M01 A2994 RMK AO2 T01801009
KGYL 222014Z AUTO 23007G14KT 200V260 10SM CLR 18/M01 A2994 RMK AO2 T01781013
KGYL 221954Z AUTO 26007KT 230V310 10SM CLR 18/M01 A2995 RMK AO2 T01761006
KGYL 221933Z AUTO 25008KT 10SM CLR 18/01 A2995 RMK AO2 T01760007
KGYL 221914Z AUTO 27007G15KT 10SM CLR 17/00 A2996 RMK AO2 T01720003
KGYL 221854Z AUTO 24009G14KT 10SM CLR 17/00 A2997 RMK AO2 T01700000
KGYL 221833Z AUTO 26009G15KT 10SM CLR 17/00 A2997 RMK AO2 T01670004
KGYL 221814Z AUTO 26008KT 220V290 10SM CLR 16/01 A2998 RMK AO2 T01620011
KGYL 221754Z AUTO 26010G14KT 10SM CLR 16/02 A2999 RMK AO2 T01630018 10163 20064
KGYL 221733Z AUTO 25006KT 10SM CLR 16/03 A3000 RMK AO2 T01600032
KGYL 221714Z AUTO 23007KT 210V270 10SM CLR 15/03 A3000 RMK AO2 T01500027
KGYL 221654Z AUTO 20006KT 10SM CLR 15/04 A3000 RMK AO2 T01450044
KGYL 221633Z AUTO 23005KT 10SM CLR 14/05 A3000 RMK AO2 T01350045
KGYL 221614Z AUTO 23007KT 10SM CLR 13/05 A3000 RMK AO2 T01270045
KGYL 221554Z AUTO 23004KT 10SM CLR 12/05 A3000 RMK AO2 T01180047
KGYL 221533Z AUTO 23006KT 10SM CLR 11/05 A3000 RMK AO2 T01080053
KGYL 221514Z AUTO 24006KT 10SM CLR 10/05 A3000 RMK AO2 T00980050
KGYL 221453Z AUTO 23007KT 10SM CLR 09/05 A2999 RMK AO2 T00870051
KGYL 221434Z AUTO 24004KT 10SM CLR 08/05 A2998 RMK AO2 T00810051
KGYL 221414Z AUTO 23006KT 10SM CLR 07/05 A2998 RMK AO2 T00710051
KGYL 221353Z AUTO 22005KT 10SM CLR 07/05 A2997 RMK AO2 T00690049
KGYL 221334Z AUTO 22003KT 10SM CLR 07/05 A2998 RMK AO2 T00660050
KGYL 221314Z AUTO 23005KT 10SM CLR 07/05 A2998 RMK AO2 T00690049
KGYL 221253Z AUTO 23004KT 10SM CLR 07/05 A2997 RMK AO2 T00650050
KGYL 221234Z AUTO 21003KT 10SM CLR 07/05 A2997 RMK AO2 T00650051
KGYL 221214Z AUTO 23003KT 10SM CLR 07/05 A2996 RMK AO2 T00670050
KGYL 221153Z AUTO 23003KT 10SM CLR 07/05 A2995 RMK AO2 70060 T00710051 10091 20070
KGYL 221134Z AUTO 22003KT 10SM CLR 07/05 A2995 RMK AO2 T00720054
KGYL 221114Z AUTO 23003KT 10SM CLR 08/06 A2994 RMK AO2 T00760055
KGYL 221054Z AUTO 24003KT 10SM CLR 08/06 A2993 RMK AO2 T00770055
KGYL 221034Z AUTO 25003KT 10SM CLR 08/06 A2993 RMK AO2 T00790055
KGYL 221014Z AUTO 24003KT 10SM CLR 08/06 A2992 RMK AO2 T00800055
KGYL 220954Z AUTO 24004KT 10SM CLR 08/06 A2992 RMK AO2 T00810056
KGYL 220934Z AUTO 24004KT 10SM CLR 08/06 A2992 RMK AO2 T00820057
KGYL 220914Z AUTO 23005KT 10SM CLR 09/06 A2991 RMK AO2 T00850056
KGYL 220854Z AUTO 24004KT 10SM CLR 09/06 A2990 RMK AO2 T00850056
KGYL 220834Z AUTO 24004KT 10SM CLR 09/06 A2990 RMK AO2 T00850057
KGYL 220813Z AUTO 24004KT 10SM CLR 08/06 A2990 RMK AO2 T00840059
KGYL 220754Z AUTO 24005KT 10SM CLR 09/06 A2990 RMK AO2 T00850060
KGYL 220734Z AUTO 23006KT 10SM CLR 09/06 A2989 RMK AO2 T00850060
KGYL 220713Z AUTO 23006KT 10SM CLR 09/06 A2989 RMK AO2 T00850060
KGYL 220654Z AUTO 24004KT 10SM CLR 09/06 A2989 RMK AO2 T00870062
KGYL 220634Z AUTO 24005KT 10SM CLR 09/06 A2988 RMK AO2 T00900064
KGYL 220613Z AUTO 24005KT 10SM CLR 09/07 A2987 RMK AO2 T00900065
KGYL 220554Z AUTO 23005KT 10SM CLR 09/07 A2987 RMK AO2 T00910065 10137 20090 402100090
KGYL 220534Z AUTO 23005KT 10SM CLR 09/07 A2987 RMK AO2 T00900067
KGYL 220514Z AUTO 23005KT 10SM CLR 09/07 A2986 RMK AO2 T00900068
KGYL 220454Z AUTO 23004KT 10SM CLR 10/07 A2986 RMK AO2 T00950070
KGYL 220434Z AUTO 24004KT 10SM CLR 10/07 A2985 RMK AO2 T00980070
KGYL 220414Z AUTO 24003KT 10SM CLR 10/07 A2984 RMK AO2 T01020071
KGYL 220354Z AUTO 26006G14KT 10SM CLR 11/07 A2983 RMK AO2 T01050070
KGYL 220334Z AUTO 26008KT 10SM CLR 11/07 A2982 RMK AO2 LTG DSNT NE T01070072
KGYL 220314Z AUTO 26009G14KT 10SM CLR 11/08 A2983 RMK AO2 T01100075
KGYL 220254Z AUTO 26007KT 10SM CLR 12/08 A2982 RMK AO2 T01150076
KGYL 220233Z AUTO 25006KT 10SM CLR 12/08 A2981 RMK AO2 T01170082
KGYL 220214Z AUTO 26006KT 10SM SCT065 SCT100 12/09 A2978 RMK AO2 T01210086
KGYL 220153Z AUTO 25005KT 10SM SCT065 OVC100 13/10 A2977 RMK AO2 LTG DSNT SE T01280097
KGYL 220134Z AUTO 26005KT 10SM SCT050 SCT090 OVC110 13/10 A2976 RMK AO2 LTG DSNT SE T01290101
KGYL 220113Z AUTO 24003KT 10SM SCT050 BKN080 OVC110 13/11 A2977 RMK AO2 LTG DSNT SE T01330110
KGYL 220054Z AUTO 24003KT 10SM SCT046 BKN065 OVC110 14/11 A2976 RMK AO2 T01350111
KGYL 220034Z AUTO 25004KT 10SM SCT041 BKN048 OVC065 14/12 A2975 RMK AO2 LTG DSNT N AND S T01350115
KGYL 220013Z AUTO 22003KT 10SM BKN041 OVC060 14/12 A2974 RMK AO2 T01370118
KGYL 212354Z AUTO 25004KT 10SM OVC039 14/13 A2973 RMK AO2 LTG DSNT N P0002 60029 T01360131 10210 20136
KGYL 212334Z AUTO 26007G14KT 220V280 7SM +RA OVC035 14/14 A2972 RMK AO2 LTG DSNT N AND S P0002 T01380135
KGYL 212313Z AUTO 26009KT 230V290 10SM -RA OVC033 14/14 A2970 RMK AO2 LTG DSNT N T01380139
KGYL 212254Z AUTO 26012G18KT 5SM -RA SCT014 BKN033 OVC038 14/14 A2968 RMK AO2 LTG DSNT N AND NE P0027 T01390140
KGYL 212234Z AUTO 27011G19KT 3SM +RA SCT014 BKN021 OVC028 14/14 A2966 RMK AO2 LTG DSNT NE AND SW P0020 T01410142
KGYL 212213Z AUTO 26010G17KT 7SM +TSRA SCT014 BKN040 OVC090 20/16 A2965 RMK AO2 LTG DSNT N AND S P0002 T01990164
KGYL 212154Z AUTO 16010G18KT 10SM VCTS BKN024 BKN046 OVC090 20/16 A2960 RMK AO2 LTG DSNT ALQS T02020163
KGYL 212133Z AUTO 16013G18KT 10SM BKN024 OVC028 20/16 A2961 RMK AO2 LTG DSNT W AND NW T02030163
KGYL 212114Z AUTO 16012G19KT 10SM BKN027 BKN033 20/16 A2960 RMK AO2 LTG DSNT SW AND W T02030164
KGYL 212054Z AUTO 16015G23KT 10SM BKN023 OVC029 21/17 A2960 RMK AO2 LTG DSNT SW THRU NW T02070165
KGYL 212033Z AUTO 16015G28KT 10SM OVC020 21/17 A2961 RMK AO2 T02060165
KGYL 212014Z AUTO 16015G26KT 10SM OVC020 21/17 A2960 RMK AO2 LTG DSNT W T02090165
KGYL 211953Z AUTO 17011G25KT 10SM BKN020 OVC027 21/18 A2961 RMK AO2 T02080184
KGYL 211934Z AUTO 17013G22KT 10SM OVC018 21/19 A2961 RMK AO2 T02050190
KGYL 211914Z AUTO 16013G20KT 10SM OVC016 20/19 A2962 RMK AO2 T01960193
KGYL 211853Z AUTO 16009G17KT 10SM OVC016 19/19 A2962 RMK AO2 T01920192
KGYL 211834Z AUTO 16011G20KT 10SM OVC014 19/19 A2963 RMK AO2 T01910191
KGYL 211814Z AUTO 16013G21KT 10SM OVC014 19/19 A2962 RMK AO2 T01910192
KGYL 211753Z AUTO 16012G18KT 130V190 10SM OVC014 19/19 A2963 RMK AO2 60031 T01900190 10191 20162
KGYL 211734Z AUTO 16012G21KT 10SM OVC014 19/19 A2962 RMK AO2 T01900191
KGYL 211714Z AUTO 17013G20KT 10SM OVC012 19/19 A2963 RMK AO2 T01900190
KGYL 211653Z AUTO 16012G19KT 10SM OVC010 18/18 A2963 RMK AO2 T01800181
KGYL 211634Z AUTO 16010G19KT 10SM OVC010 18/18 A2963 RMK AO2 T01780180
KGYL 211614Z AUTO 15013G19KT 10SM OVC010 18/18 A2963 RMK AO2 LTG DSNT E T01750175
KGYL 211553Z AUTO 16009G19KT 10SM OVC012 17/17 A2964 RMK AO2 T01710172
KGYL 211534Z AUTO 16013G19KT 10SM BKN014 OVC021 18/18 A2964 RMK AO2 T01750175
KGYL 211514Z AUTO 16013G25KT 10SM SCT014 OVC021 18/18 A2963 RMK AO2 LTG DSNT NE AND E T01750175
KGYL 211453Z AUTO 15016G21KT 10SM BKN023 BKN036 OVC044 17/17 A2962 RMK AO2 LTG DSNT SE P0014 60031 T01720173
KGYL 211434Z AUTO 17011G21KT 10SM SCT010 BKN034 OVC044 17/17 A2962 RMK AO2 LTG DSNT SE AND S P0014 T01690170
KGYL 211413Z AUTO 15011G18KT 4SM +RA BKN010 OVC013 16/17 A2963 RMK AO2 LTG DSNT S P0006 T01630165
KGYL 211354Z AUTO 16008G16KT 10SM -VCTSRA OVC010 17/17 A2963 RMK AO2 LTG DSNT SE AND S P0001 T01650165
KGYL 211334Z AUTO 16009G16KT 10SM -RA OVC010 16/17 A2964 RMK AO2 LTG DSNT N P0001 T01630165
KGYL 211313Z AUTO 16010G16KT 10SM OVC014 16/17 A2963 RMK AO2 LTG DSNT ALQS T01630165
KGYL 211254Z AUTO 15011G19KT 7SM -RA SCT009 BKN014 OVC050 16/17 A2962 RMK AO2 LTG DSNT N AND NE P0016 T01630165
KGYL 211234Z AUTO 16010G18KT 140V200 3SM TSRA SCT015 BKN042 OVC048 16/17 A2962 RMK AO2 LTG DSNT ALQS P0013 T01630165
KGYL 211213Z AUTO 17011G19KT 7SM -TSRA SCT021 OVC043 17/15 A2963 RMK AO2 LTG DSNT E THRU W T01700145
KGYL 211154Z AUTO 16011G21KT 10SM SCT025 BKN037 OVC047 18/13 A2963 RMK AO2 LTG DSNT E AND SE T01810133 10190 20175
KGYL 211134Z AUTO 16012G18KT 10SM SCT027 OVC037 18/13 A2963 RMK AO2 LTG DSNT E AND SE T01800130
KGYL 211113Z AUTO 16011G19KT 10SM SCT030 BKN037 OVC044 18/13 A2963 RMK AO2 LTG DSNT SE AND S T01800127
KGYL 211054Z AUTO 16011G22KT 10SM BKN038 OVC046 18/13 A2963 RMK AO2 T01790126
KGYL 211034Z AUTO 16011G17KT 10SM BKN045 18/13 A2963 RMK AO2 LTG DSNT SE AND S T01770125
KGYL 211013Z AUTO 16010G18KT 10SM SCT041 18/13 A2963 RMK AO2 T01780125
KGYL 210954Z AUTO 16012G19KT 10SM CLR 18/13 A2963 RMK AO2 LTG DSNT S T01790126
KGYL 210934Z AUTO 15010G15KT 10SM CLR 18/13 A2963 RMK AO2 T01770126
KGYL 210914Z AUTO 16009G15KT 10SM CLR 18/13 A2963 RMK AO2 T01760125